Time;durP1;ratioP1;P1;durP2;ratioP2;P2;SDS_P1;SDS_P2;PMS_P1;PMS_P2;Temp;Humidity;BMP_temperature;BMP_pressure;BME280_temperature;BME280_humidity;BME280_pressure;Samples;Min_cycle;Max_cycle;Signal;HPM_P1;HPM_P2
2022/12/31 00:01:31;;;;;;;47.20;42.70;;;;;;;2.77;89.22;97901.67;104986;1306;22131;-89
2022/12/31 00:03:59;;;;;;;46.20;41.70;;;;;;;2.81;88.99;97913.02;105015;1322;22145;-89
2022/12/31 00:06:30;;;;;;;53.50;48.70;;;;;;;2.84;89.49;97908.95;104987;1309;22101;-88
2022/12/31 00:09:00;;;;;;;70.20;63.60;;;;;;;2.84;88.85;97919.27;104962;1328;22141;-88
2022/12/31 00:11:29;;;;;;;72.70;65.60;;;;;;;2.76;88.60;97923.02;104954;1318;22275;-88
2022/12/31 00:13:58;;;;;;;67.90;61.20;;;;;;;2.70;88.56;97915.49;104965;1313;22262;-88
2022/12/31 00:16:28;;;;;;;63.00;57.00;;;;;;;2.68;88.65;97920.73;105453;1314;22155;-89
2022/12/31 00:18:58;;;;;;;62.40;56.50;;;;;;;2.67;88.34;97920.30;105613;1310;22832;-89
2022/12/31 00:21:30;;;;;;;54.50;49.30;;;;;;;2.63;88.59;97920.55;105478;1324;22201;-90
2022/12/31 00:23:58;;;;;;;53.30;48.50;;;;;;;2.59;88.71;97912.05;104986;1328;22211;-88
2022/12/31 00:26:30;;;;;;;47.60;43.20;;;;;;;2.58;89.08;97906.77;105016;1327;22128;-89
2022/12/31 00:28:59;;;;;;;45.40;40.90;;;;;;;2.60;89.12;97903.93;105005;1327;22133;-88
2022/12/31 00:31:32;;;;;;;43.80;39.60;;;;;;;2.68;89.50;97899.72;105449;1319;22190;-89
2022/12/31 00:34:01;;;;;;;43.60;39.20;;;;;;;2.73;89.43;97891.90;104974;1328;22133;-88
2022/12/31 00:36:33;;;;;;;47.80;43.20;;;;;;;2.82;89.38;97892.70;105332;1311;22847;-90
2022/12/31 00:39:03;;;;;;;43.50;39.40;;;;;;;2.87;89.24;97892.66;104882;1328;22704;-89
2022/12/31 00:41:31;;;;;;;43.90;39.80;;;;;;;2.92;89.45;97893.88;105098;1322;22097;-89
2022/12/31 00:43:59;;;;;;;47.90;43.10;;;;;;;2.95;89.53;97903.66;104971;1326;22944;-90
2022/12/31 00:46:28;;;;;;;52.50;47.50;;;;;;;2.96;89.46;97907.17;105557;1312;22093;-91
2022/12/31 00:48:56;;;;;;;43.00;38.90;;;;;;;2.99;89.24;97899.82;105090;1327;22192;-90
2022/12/31 00:51:26;;;;;;;42.60;38.50;;;;;;;3.06;89.36;97896.81;105363;1323;22175;-90
2022/12/31 00:53:55;;;;;;;43.30;39.00;;;;;;;3.14;89.68;97895.72;104975;1327;22183;-89
2022/12/31 00:56:26;;;;;;;47.80;43.40;;;;;;;3.24;89.95;97905.50;104990;1330;22230;-87
2022/12/31 00:58:54;;;;;;;43.70;39.60;;;;;;;3.32;89.90;97906.13;104985;1321;22188;-86
2022/12/31 01:01:25;;;;;;;41.20;37.30;;;;;;;3.39;90.06;97913.92;105344;1317;22072;-86
2022/12/31 01:04:06;;;;;;;48.20;43.80;;;;;;;3.45;90.15;97911.25;104888;1327;22902;-87
2022/12/31 01:06:34;;;;;;;71.40;65.00;;;;;;;3.49;89.88;97911.29;104976;1322;22207;-89
2022/12/31 01:09:03;;;;;;;60.80;54.90;;;;;;;3.55;89.88;97909.69;104894;1327;22863;-88
2022/12/31 01:11:32;;;;;;;45.60;41.50;;;;;;;3.62;89.70;97912.27;104947;1319;22199;-89
2022/12/31 01:14:12;;;;;;;35.20;32.00;;;;;;;3.69;90.01;97916.96;104988;1327;22207;-90
2022/12/31 01:16:44;;;;;;;47.60;43.30;;;;;;;3.74;89.82;97921.43;104810;1324;22757;-89
2022/12/31 01:19:15;;;;;;;64.20;58.60;;;;;;;3.77;89.80;97918.47;104939;1327;22143;-92
2022/12/31 01:21:44;;;;;;;83.10;75.20;;;;;;;3.77;89.60;97919.21;105003;1327;22092;-88
2022/12/31 01:24:12;;;;;;;72.60;66.40;;;;;;;3.73;89.53;97914.17;104975;1320;22205;-90
2022/12/31 01:26:41;;;;;;;58.30;53.20;;;;;;;3.71;89.45;97918.48;104932;1327;22123;-91
2022/12/31 01:29:12;;;;;;;43.30;39.10;;;;;;;3.69;88.99;97916.05;104848;1326;22094;-90
2022/12/31 01:31:40;;;;;;;35.50;32.30;;;;;;;3.68;89.13;97912.69;105071;1325;22165;-84
2022/12/31 01:34:08;;;;;;;38.10;34.30;;;;;;;3.70;89.30;97912.16;104945;1327;22892;-88
2022/12/31 01:37:06;;;;;;;38.80;35.20;;;;;;;3.69;89.06;97916.33;104969;1327;22322;-87
2022/12/31 01:39:34;;;;;;;53.00;48.00;;;;;;;3.60;88.76;97924.77;105127;1327;22120;-88
2022/12/31 01:42:02;;;;;;;52.20;47.40;;;;;;;3.50;88.69;97931.45;104957;1327;22089;-85
2022/12/31 01:44:30;;;;;;;55.40;50.10;;;;;;;3.37;88.34;97931.33;104937;1327;22107;-87
2022/12/31 01:47:02;;;;;;;60.50;54.70;;;;;;;3.28;88.44;97933.13;104958;1327;22095;-85
2022/12/31 01:49:40;;;;;;;52.50;47.50;;;;;;;3.24;89.01;97932.24;104783;1331;22794;-85
2022/12/31 01:52:21;;;;;;;44.90;40.60;;;;;;;3.22;88.74;97934.45;104819;1327;22118;-86
2022/12/31 01:54:56;;;;;;;39.30;35.70;;;;;;;3.16;88.60;97925.81;104919;1327;22115;-87
2022/12/31 01:57:26;;;;;;;63.10;57.20;;;;;;;3.05;88.48;97933.38;104860;1328;22764;-87
2022/12/31 01:59:55;;;;;;;50.00;45.50;;;;;;;3.02;89.17;97924.88;104905;1328;22312;-86
2022/12/31 02:02:23;;;;;;;53.70;48.80;;;;;;;3.12;89.53;97921.20;104976;1327;22966;-88
2022/12/31 02:04:54;;;;;;;44.00;39.90;;;;;;;3.13;88.90;97919.55;104999;1326;22098;-88
2022/12/31 02:07:22;;;;;;;34.40;31.20;;;;;;;3.12;89.14;97915.23;104931;1327;22129;-87
2022/12/31 02:09:53;;;;;;;35.50;32.00;;;;;;;3.07;89.18;97920.14;104882;1327;22134;-86
2022/12/31 02:12:21;;;;;;;34.70;31.40;;;;;;;3.07;89.40;97940.96;104825;1327;22139;-89
2022/12/31 02:14:52;;;;;;;40.50;36.80;;;;;;;3.04;89.33;97942.14;104768;1327;22341;-89
2022/12/31 02:17:50;;;;;;;40.70;37.00;;;;;;;2.98;89.39;97927.00;104887;1327;22793;-89
2022/12/31 02:20:50;;;;;;;37.60;34.00;;;;;;;3.02;89.40;97936.38;104945;1327;22153;-88
2022/12/31 02:23:21;;;;;;;36.70;33.20;;;;;;;3.06;89.60;97932.20;104899;1315;22087;-89
2022/12/31 02:26:14;;;;;;;36.50;32.90;;;;;;;3.11;89.54;97926.61;104978;1327;22071;-90
2022/12/31 02:28:51;;;;;;;37.60;34.00;;;;;;;3.23;90.02;97923.77;105110;1326;22092;-88
2022/12/31 02:31:31;;;;;;;39.30;35.50;;;;;;;3.32;89.87;97933.23;105127;1326;22814;-90
2022/12/31 02:34:12;;;;;;;49.80;44.70;;;;;;;3.34;89.68;97944.92;104994;1326;22126;-87
2022/12/31 02:36:46;;;;;;;50.90;45.70;;;;;;;3.22;89.36;97944.27;105013;1326;22078;-88
2022/12/31 02:39:14;;;;;;;197.50;154.20;;;;;;;3.13;89.27;97945.39;104943;1327;22275;-88
2022/12/31 02:41:50;;;;;;;55.80;50.30;;;;;;;3.11;89.64;97954.09;105011;1325;22089;-88
2022/12/31 02:44:29;;;;;;;70.60;62.30;;;;;;;3.13;89.72;97949.27;104901;1327;22172;-89
2022/12/31 02:47:19;;;;;;;59.30;53.40;;;;;;;3.20;89.74;97941.79;105037;1327;22068;-88
2022/12/31 02:50:21;;;;;;;51.30;45.90;;;;;;;3.28;89.87;97941.19;105000;1327;22810;-88
2022/12/31 02:53:08;;;;;;;52.10;47.40;;;;;;;3.34;89.81;97924.09;105159;1326;22346;-89
2022/12/31 02:55:51;;;;;;;115.80;72.20;;;;;;;3.33;89.78;97920.51;104969;1327;22087;-88
2022/12/31 03:04:32;;;;;;;57.50;51.80;;;;;;;3.35;90.13;97915.32;105113;1324;22206;-86
2022/12/31 03:07:07;;;;;;;58.30;52.70;;;;;;;3.43;89.89;97916.77;105089;1322;22098;-88
2022/12/31 03:09:36;;;;;;;58.60;52.70;;;;;;;3.48;89.94;97907.02;105068;1327;22196;-87
2022/12/31 03:14:53;;;;;;;56.40;51.40;;;;;;;3.47;89.75;97891.72;105315;1327;22131;-86
2022/12/31 03:17:21;;;;;;;56.80;51.60;;;;;;;3.45;90.19;97879.39;104982;1322;22128;-87
2022/12/31 03:23:36;;;;;;;53.90;48.80;;;;;;;3.41;89.79;97858.53;105062;1327;22109;-88
2022/12/31 03:26:11;;;;;;;53.80;48.70;;;;;;;3.40;90.07;97872.16;104940;1319;22084;-87
2022/12/31 03:28:42;;;;;;;50.60;45.50;;;;;;;3.41;90.08;97891.98;104868;1328;22191;-88
2022/12/31 03:31:10;;;;;;;49.30;44.60;;;;;;;3.30;89.99;97921.72;104974;1326;22106;-88
2022/12/31 03:33:40;;;;;;;51.70;47.00;;;;;;;3.17;90.30;97926.30;105097;1326;22665;-89
2022/12/31 03:36:11;;;;;;;53.40;48.40;;;;;;;3.05;90.66;97924.47;104960;1327;22142;-88
2022/12/31 03:38:39;;;;;;;53.20;48.10;;;;;;;2.97;90.99;97929.77;104967;1327;22799;-89
2022/12/31 03:41:10;;;;;;;56.60;51.20;;;;;;;2.97;90.78;97932.94;104878;1326;22335;-89
2022/12/31 03:43:38;;;;;;;50.60;45.60;;;;;;;3.00;91.04;97933.84;104833;1327;22684;-88
2022/12/31 03:46:06;;;;;;;58.00;52.40;;;;;;;3.04;90.60;97940.55;104800;1328;22151;-87
2022/12/31 03:48:34;;;;;;;56.20;50.80;;;;;;;3.01;90.65;97936.78;105550;1317;22120;-88
2022/12/31 03:51:04;;;;;;;53.00;48.00;;;;;;;3.10;90.80;97941.03;104944;1327;22106;-88
2022/12/31 03:53:34;;;;;;;50.40;45.90;;;;;;;3.19;90.97;97941.13;105097;1325;22074;-88
2022/12/31 03:56:02;;;;;;;53.50;48.30;;;;;;;3.32;91.54;97943.89;105290;1326;22144;-87
2022/12/31 03:58:30;;;;;;;52.00;47.10;;;;;;;3.39;91.33;97949.92;104808;1327;22758;-88
2022/12/31 04:00:58;;;;;;;54.30;48.80;;;;;;;3.43;91.13;97953.27;104931;1326;22208;-89
2022/12/31 04:03:27;;;;;;;49.70;44.60;;;;;;;3.52;91.60;97946.38;104958;1326;22098;-89
2022/12/31 04:05:55;;;;;;;49.50;44.80;;;;;;;3.65;91.54;97946.35;104950;1326;22076;-88
2022/12/31 04:08:24;;;;;;;50.00;45.00;;;;;;;3.76;91.59;97952.35;105079;1325;22281;-89
2022/12/31 04:10:52;;;;;;;49.50;44.70;;;;;;;3.87;91.57;97955.38;105076;1318;22151;-87
2022/12/31 04:13:20;;;;;;;55.30;49.90;;;;;;;3.96;91.53;97952.16;104887;1326;22111;-88
2022/12/31 04:15:50;;;;;;;52.70;47.80;;;;;;;4.02;91.47;97949.60;105081;1326;22850;-87
2022/12/31 04:18:18;;;;;;;55.40;50.30;;;;;;;4.06;91.50;97949.52;104882;1327;22095;-87
2022/12/31 04:20:46;;;;;;;55.80;50.60;;;;;;;4.09;91.33;97947.90;105451;1317;22273;-88
2022/12/31 04:23:15;;;;;;;55.10;49.70;;;;;;;4.12;91.28;97953.36;105208;1311;22684;-89
2022/12/31 04:25:43;;;;;;;54.70;49.40;;;;;;;4.16;91.09;97951.83;104910;1327;22186;-88
2022/12/31 04:28:13;;;;;;;52.10;47.20;;;;;;;4.22;91.60;97951.34;104949;1327;22089;-88
2022/12/31 04:30:42;;;;;;;54.60;49.50;;;;;;;4.27;91.37;97949.02;104913;1321;22071;-88
2022/12/31 04:33:10;;;;;;;55.70;50.80;;;;;;;4.31;91.29;97945.16;105343;1305;22112;-88
2022/12/31 04:35:38;;;;;;;57.80;52.20;;;;;;;4.31;91.31;97947.83;104991;1326;22145;-88
2022/12/31 04:38:06;;;;;;;55.40;50.20;;;;;;;4.32;91.44;97953.13;104957;1313;22155;-88
2022/12/31 04:41:15;;;;;;;53.00;48.00;;;;;;;4.30;91.40;97963.51;104918;1319;22090;-88
2022/12/31 04:43:23;;;;;;;54.20;49.10;;;;;;;4.24;91.58;97965.71;105132;1326;22191;-88
2022/12/31 04:45:51;;;;;;;49.30;44.80;;;;;;;4.18;91.54;97974.35;104967;1327;22199;-89
2022/12/31 04:52:49;;;;;;;51.10;46.40;;;;;;;4.47;92.51;97974.13;105087;1308;22104;-90
2022/12/31 04:55:17;;;;;;;51.80;47.00;;;;;;;4.54;92.70;97976.15;104939;1315;22136;-89
2022/12/31 04:57:45;;;;;;;50.70;46.20;;;;;;;4.61;92.19;97977.31;105124;1325;22204;-88
2022/12/31 05:00:13;;;;;;;49.20;44.30;;;;;;;4.68;92.27;97971.60;104912;1327;22095;-86
2022/12/31 05:02:41;;;;;;;48.30;43.50;;;;;;;4.74;92.42;97975.42;104877;1327;22177;-86
2022/12/31 05:05:10;;;;;;;50.30;45.50;;;;;;;4.79;92.30;97975.06;104915;1327;22198;-86
2022/12/31 05:07:38;;;;;;;51.90;47.00;;;;;;;4.82;92.08;97983.25;105094;1325;22089;-87
2022/12/31 05:10:06;;;;;;;54.50;49.40;;;;;;;4.83;92.20;97990.52;104899;1326;22210;-87
2022/12/31 05:12:34;;;;;;;49.60;44.90;;;;;;;4.84;92.06;97993.25;104925;1327;22129;-86
2022/12/31 05:15:02;;;;;;;51.00;46.20;;;;;;;4.85;92.18;97997.69;104946;1327;22962;-86
2022/12/31 05:17:30;;;;;;;50.90;45.90;;;;;;;4.86;92.02;97995.13;104909;1327;22851;-86
2022/12/31 05:19:59;;;;;;;49.80;45.10;;;;;;;4.92;91.87;97993.98;105112;1318;22112;-86
2022/12/31 05:22:31;;;;;;;45.10;40.90;;;;;;;4.99;92.26;97997.92;104934;1327;22932;-86
2022/12/31 05:25:00;;;;;;;48.20;43.70;;;;;;;5.05;92.23;97998.91;104820;1322;22802;-86
2022/12/31 05:27:29;;;;;;;50.20;44.60;;;;;;;5.03;91.63;97999.00;104981;1327;22190;-87
2022/12/31 05:29:58;;;;;;;51.50;46.60;;;;;;;4.98;91.80;97995.57;105118;1317;22127;-87
2022/12/31 05:32:26;;;;;;;42.30;38.10;;;;;;;5.01;92.12;97999.80;104971;1327;22146;-86
2022/12/31 05:34:56;;;;;;;41.90;37.50;;;;;;;5.08;92.22;97993.48;104856;1323;22966;-85
2022/12/31 05:37:27;;;;;;;44.90;40.30;;;;;;;5.16;92.51;97990.20;104938;1327;22152;-85
2022/12/31 05:39:59;;;;;;;52.30;46.90;;;;;;;5.23;92.40;97994.98;104902;1326;22198;-85
2022/12/31 05:42:27;;;;;;;59.70;53.30;;;;;;;5.28;92.38;97991.67;104807;1327;22110;-86
2022/12/31 05:44:55;;;;;;;54.60;48.90;;;;;;;5.32;92.34;97987.73;104887;1327;22106;-85
2022/12/31 05:47:24;;;;;;;63.40;47.70;;;;;;;5.36;92.34;97983.43;105107;1326;22958;-86
2022/12/31 05:49:52;;;;;;;115.20;60.30;;;;;;;5.42;92.23;97985.05;104926;1327;22169;-86
2022/12/31 05:52:20;;;;;;;410.80;125.40;;;;;;;5.44;92.32;97987.52;105025;1327;22200;-85
2022/12/31 05:54:48;;;;;;;85.00;55.00;;;;;;;5.49;92.37;97992.17;104832;1326;22870;-86
2022/12/31 05:57:16;;;;;;;47.10;41.90;;;;;;;5.52;92.43;97995.02;104885;1327;22115;-87
2022/12/31 05:59:44;;;;;;;44.70;40.50;;;;;;;5.53;92.31;97995.93;105127;1327;22130;-87
2022/12/31 06:02:12;;;;;;;41.00;37.20;;;;;;;5.52;92.09;97997.27;104982;1327;22106;-86
2022/12/31 06:05:08;;;;;;;39.60;35.90;;;;;;;5.56;92.39;97999.09;104804;1323;22238;-86
2022/12/31 06:07:36;;;;;;;39.30;35.60;;;;;;;5.62;92.31;98005.09;104927;1326;22871;-86
2022/12/31 06:10:05;;;;;;;40.80;37.00;;;;;;;5.68;92.42;98003.88;104964;1327;22191;-86
2022/12/31 06:12:34;;;;;;;36.70;33.30;;;;;;;5.74;92.38;98008.17;104894;1323;22153;-86
2022/12/31 06:15:03;;;;;;;36.70;33.10;;;;;;;5.81;92.85;98011.34;104836;1327;22080;-86
2022/12/31 06:17:33;;;;;;;39.90;36.30;;;;;;;5.85;92.79;98007.61;105011;1317;22097;-86
2022/12/31 06:20:01;;;;;;;38.30;34.60;;;;;;;5.86;92.55;98005.63;105109;1326;22297;-86
2022/12/31 06:22:35;;;;;;;;;;;;;;;5.89;92.58;98010.07;104991;1320;22330;-86
2022/12/31 06:25:04;;;;;;;38.00;34.30;;;;;;;5.89;92.55;98013.71;105093;1326;22209;-86
2022/12/31 06:27:32;;;;;;;36.40;33.00;;;;;;;5.92;92.66;98017.52;104805;1327;22719;-86
2022/12/31 06:30:00;;;;;;;36.70;33.40;;;;;;;5.96;92.82;98018.83;104923;1327;22188;-86
2022/12/31 06:32:28;;;;;;;37.30;33.80;;;;;;;5.99;92.84;98017.07;104973;1326;22218;-87
2022/12/31 06:34:56;;;;;;;36.50;33.10;;;;;;;6.00;92.80;98020.07;104923;1323;22268;-87
2022/12/31 06:37:29;;;;;;;33.00;30.00;;;;;;;6.01;92.90;98023.06;104889;1327;22172;-88
2022/12/31 06:39:59;;;;;;;33.30;30.30;;;;;;;6.02;92.96;98017.18;104925;1326;22125;-88
2022/12/31 06:42:29;;;;;;;30.50;27.80;;;;;;;6.06;92.93;98022.11;104907;1327;22105;-88
2022/12/31 06:44:58;;;;;;;30.20;27.50;;;;;;;6.12;93.04;98024.20;104974;1319;22099;-88
2022/12/31 06:47:26;;;;;;;31.10;28.20;;;;;;;6.19;92.97;98025.43;105003;1327;22730;-88
2022/12/31 06:49:54;;;;;;;29.60;26.90;;;;;;;6.26;93.12;98027.94;104926;1327;22111;-88
2022/12/31 06:52:22;;;;;;;30.80;28.00;;;;;;;6.30;93.14;98014.14;104948;1326;22130;-88
2022/12/31 06:55:15;;;;;;;32.40;29.60;;;;;;;6.32;93.14;98011.80;104967;1326;22137;-88
2022/12/31 06:57:44;;;;;;;32.00;29.00;;;;;;;6.34;92.81;98018.20;104963;1327;22955;-89
2022/12/31 07:00:13;;;;;;;29.10;26.30;;;;;;;6.39;92.84;98018.75;104919;1327;22599;-89
2022/12/31 07:02:57;;;;;;;26.30;24.00;;;;;;;6.44;92.87;98015.39;104829;1327;22091;-89
2022/12/31 07:05:35;;;;;;;28.10;25.50;;;;;;;6.50;92.88;98010.70;104927;1326;22232;-90
2022/12/31 07:08:28;;;;;;;29.40;26.80;;;;;;;6.53;92.85;98015.83;104938;1326;22192;-89
2022/12/31 07:11:51;;;;;;;33.00;29.90;;;;;;;6.54;92.98;98024.10;104961;1319;22182;-90
2022/12/31 07:14:56;;;;;;;31.20;28.50;;;;;;;6.52;93.09;98031.16;104957;1326;22869;-89
2022/12/31 07:17:49;;;;;;;31.10;28.20;;;;;;;6.60;93.07;98039.67;104963;1327;22116;-89
2022/12/31 07:20:18;;;;;;;32.00;29.00;;;;;;;6.66;93.06;98042.23;104939;1327;22122;-88
2022/12/31 07:22:47;;;;;;;38.70;35.30;;;;;;;6.73;93.06;98055.35;104960;1319;22933;-89
2022/12/31 07:26:10;;;;;;;37.20;33.90;;;;;;;6.77;93.01;98048.21;104926;1327;22117;-88
2022/12/31 07:28:56;;;;;;;38.20;34.90;;;;;;;6.82;93.33;98045.32;105066;1327;22152;-89
2022/12/31 07:31:27;;;;;;;36.70;33.40;;;;;;;6.87;93.24;98049.38;104915;1326;22137;-89
2022/12/31 07:34:11;;;;;;;34.70;31.50;;;;;;;6.93;93.23;98045.19;104952;1327;22772;-89
2022/12/31 07:37:03;;;;;;;35.00;32.00;;;;;;;7.02;93.21;98045.82;104836;1319;153546;-88
2022/12/31 07:39:40;;;;;;;37.10;33.80;;;;;;;7.10;93.01;98049.61;104910;1326;22081;-88
2022/12/31 07:42:31;;;;;;;43.00;39.20;;;;;;;7.15;93.29;98055.71;104869;1327;22194;-86
2022/12/31 07:45:33;;;;;;;37.90;34.60;;;;;;;7.17;93.23;98065.61;104837;1327;22122;-86
2022/12/31 07:48:02;;;;;;;36.80;33.50;;;;;;;7.18;93.00;98070.60;105031;1327;22292;-85
2022/12/31 07:54:48;;;;;;;31.70;28.80;;;;;;;7.33;93.13;98073.50;104974;1326;22217;-88
2022/12/31 07:57:19;;;;;;;37.80;34.20;;;;;;;7.43;92.93;98070.45;104861;1325;22740;-88
2022/12/31 08:00:17;;;;;;;37.10;33.80;;;;;;;7.53;93.26;98071.60;104824;1321;22711;-88
2022/12/31 08:03:01;;;;;;;30.90;28.00;;;;;;;7.61;93.44;98071.36;104940;1327;22994;-86
2022/12/31 08:05:49;;;;;;;32.90;29.70;;;;;;;7.64;93.07;98066.99;105027;1327;22154;-87
2022/12/31 08:08:31;;;;;;;29.10;26.30;;;;;;;7.65;93.18;98062.75;105086;1315;22190;-88
2022/12/31 08:11:14;;;;;;;31.00;28.00;;;;;;;7.69;93.00;98075.02;105021;1326;22191;-87
2022/12/31 08:13:42;;;;;;;36.60;33.50;;;;;;;7.71;92.92;98071.63;105090;1321;22094;-87
2022/12/31 08:16:13;;;;;;;36.00;32.80;;;;;;;7.73;92.91;98059.34;104918;1327;22326;-88
2022/12/31 08:18:41;;;;;;;37.50;34.30;;;;;;;7.72;92.80;98059.50;104842;1324;22174;-87
2022/12/31 08:21:13;;;;;;;37.10;33.80;;;;;;;7.71;92.94;98059.30;104952;1316;22097;-87
2022/12/31 08:24:21;;;;;;;33.70;30.70;;;;;;;7.74;92.51;98063.89;105132;1326;22201;-87
2022/12/31 08:27:32;;;;;;;40.90;37.20;;;;;;;7.77;92.66;98080.84;104991;1326;22088;-88
2022/12/31 08:30:12;;;;;;;36.50;33.20;;;;;;;7.80;92.49;98072.93;105209;1318;22740;-87
2022/12/31 08:33:11;;;;;;;33.40;30.60;;;;;;;7.81;92.41;98069.91;104772;1327;22160;-87
2022/12/31 08:36:31;;;;;;;34.40;31.40;;;;;;;7.84;92.59;98079.35;105239;1327;22124;-87
2022/12/31 08:39:41;;;;;;;28.60;26.10;;;;;;;7.93;92.30;98085.04;105080;1327;22122;-87
2022/12/31 08:42:32;;;;;;;31.20;28.30;;;;;;;8.07;92.32;98085.34;104442;1335;22175;-87
2022/12/31 08:45:27;;;;;;;27.40;25.00;;;;;;;8.17;92.15;98072.39;104447;1333;22227;-89
2022/12/31 08:48:01;;;;;;;24.80;22.30;;;;;;;8.23;91.80;98077.08;104628;1326;22224;-87
2022/12/31 08:50:30;;;;;;;26.30;24.00;;;;;;;8.31;91.91;98077.89;104469;1333;22187;-87
2022/12/31 08:52:58;;;;;;;28.50;25.70;;;;;;;8.40;91.70;98076.60;104318;1333;22276;-87
2022/12/31 08:55:32;;;;;;;27.00;24.80;;;;;;;8.50;91.84;98091.00;104475;1318;22165;-88
2022/12/31 08:58:21;;;;;;;29.50;27.00;;;;;;;8.60;91.99;98084.20;104376;1328;22215;-87
2022/12/31 09:00:55;;;;;;;27.40;25.10;;;;;;;8.67;91.18;98091.33;104420;1333;22977;-88
2022/12/31 09:03:48;;;;;;;38.20;35.00;;;;;;;8.70;91.01;98096.20;104335;1333;22221;-88
2022/12/31 09:06:25;;;;;;;28.70;26.10;;;;;;;8.76;90.82;98103.46;104524;1333;22889;-90
2022/12/31 09:09:06;;;;;;;29.30;26.80;;;;;;;8.82;90.64;98109.91;104597;1333;22152;-89
2022/12/31 09:12:03;;;;;;;33.20;30.00;;;;;;;8.84;89.94;98105.82;104523;1327;22169;-90
2022/12/31 09:14:48;;;;;;;38.40;34.90;;;;;;;8.80;90.54;98096.17;104379;1324;22157;-88
2022/12/31 09:17:35;;;;;;;34.10;31.00;;;;;;;8.77;90.50;98093.52;104508;1333;22275;-88
2022/12/31 09:20:30;;;;;;;34.80;31.50;;;;;;;8.78;90.69;98082.85;104973;1327;22334;-88
2022/12/31 09:23:12;;;;;;;34.10;31.10;;;;;;;8.85;90.62;98088.23;105090;1324;22214;-87
2022/12/31 09:26:14;;;;;;;29.30;26.70;;;;;;;8.91;90.84;98077.60;105078;1325;22130;-88
2022/12/31 09:29:01;;;;;;;31.60;28.70;;;;;;;8.98;91.09;98072.48;104944;1327;22087;-88
2022/12/31 09:31:48;;;;;;;28.60;26.20;;;;;;;9.06;90.91;98075.52;105568;1317;22207;-88
2022/12/31 09:34:29;;;;;;;31.10;28.20;;;;;;;9.18;91.24;98074.69;104935;1327;22249;-87
2022/12/31 09:37:28;;;;;;;30.00;27.20;;;;;;;9.26;90.60;98074.86;104874;1324;22129;-86
2022/12/31 09:40:04;;;;;;;29.40;26.70;;;;;;;9.37;90.70;98076.95;104865;1327;22136;-88
2022/12/31 09:43:01;;;;;;;30.70;27.80;;;;;;;9.47;90.41;98072.55;104968;1327;22137;-89
2022/12/31 09:45:38;;;;;;;27.90;25.20;;;;;;;9.57;90.12;98075.54;104749;1326;22081;-89
2022/12/31 09:48:25;;;;;;;31.60;28.50;;;;;;;9.64;89.31;98081.59;104983;1309;22697;-91
2022/12/31 09:51:08;;;;;;;34.10;30.60;;;;;;;9.75;88.85;98076.66;105054;1327;22105;-90
2022/12/31 09:54:12;;;;;;;25.70;23.20;;;;;;;9.88;88.58;98071.07;104859;1327;22124;-91
2022/12/31 09:57:14;;;;;;;25.30;22.80;;;;;;;10.03;88.82;98070.16;105047;1327;22163;-91
2022/12/31 09:59:48;;;;;;;26.40;23.90;;;;;;;10.16;88.19;98070.26;104924;1327;22116;-90
2022/12/31 10:02:37;;;;;;;21.90;19.60;;;;;;;10.21;87.60;98072.44;105001;1327;22186;-90
2022/12/31 10:05:50;;;;;;;19.70;17.80;;;;;;;10.26;86.50;98073.73;105344;1317;22087;-93
2022/12/31 10:08:32;;;;;;;17.70;15.90;;;;;;;10.31;86.54;98072.38;105255;1294;22177;-94
2022/12/31 10:11:34;;;;;;;16.50;14.80;;;;;;;10.38;86.07;98073.61;105015;1324;22058;-88
2022/12/31 10:14:27;;;;;;;17.20;15.50;;;;;;;10.43;85.58;98073.91;104966;1324;22196;-92
2022/12/31 10:17:16;;;;;;;13.90;12.60;;;;;;;10.49;85.11;98065.58;105021;1324;22152;-92
2022/12/31 10:19:45;;;;;;;13.80;11.60;;;;;;;10.60;85.18;98064.27;105016;1324;22269;-91
2022/12/31 10:22:50;;;;;;;12.70;11.40;;;;;;;10.64;85.10;98059.19;105367;1324;22103;-91
2022/12/31 10:25:23;;;;;;;;;;;;;;;10.62;84.79;98039.40;105183;1324;22283;-92
2022/12/31 10:28:28;;;;;;;10.20;9.20;;;;;;;10.68;84.80;98054.22;105157;1301;22895;-93
2022/12/31 10:31:11;;;;;;;11.60;10.10;;;;;;;10.73;84.79;98049.56;105473;1323;22164;-93
2022/12/31 10:34:04;;;;;;;12.10;10.80;;;;;;;10.83;84.98;98053.86;105200;1324;22692;-93
2022/12/31 10:37:09;;;;;;;9.50;8.50;;;;;;;10.94;84.62;98051.13;105526;1318;22097;-91
2022/12/31 10:39:53;;;;;;;11.50;10.40;;;;;;;11.03;83.85;98056.46;105413;1323;22118;-93
2022/12/31 10:43:00;;;;;;;11.10;9.40;;;;;;;11.08;83.93;98057.67;105112;1315;22144;-90
2022/12/31 10:45:28;;;;;;;10.50;8.90;;;;;;;11.15;84.21;98067.26;104768;1330;23020;-92
2022/12/31 10:52:37;;;;;;;7.50;6.70;;;;;;;11.25;83.56;98079.70;104817;1330;22140;-91
2022/12/31 10:55:46;;;;;;;8.10;7.20;;;;;;;11.29;83.48;98086.95;104791;1324;22278;-89
2022/12/31 10:58:26;;;;;;;8.40;7.50;;;;;;;11.32;84.03;98091.70;104750;1330;22893;-92
2022/12/31 11:00:57;;;;;;;8.70;7.60;;;;;;;11.33;84.03;98086.49;104762;1330;22138;-90
2022/12/31 11:07:25;;;;;;;7.60;6.80;;;;;;;11.32;83.81;98076.21;104821;1330;22276;-91
2022/12/31 11:10:26;;;;;;;8.50;7.60;;;;;;;11.35;83.94;98068.66;104833;1330;22129;-91
2022/12/31 11:13:28;;;;;;;13.30;11.90;;;;;;;11.38;83.91;98067.57;104861;1329;22211;-89
2022/12/31 11:16:34;;;;;;;21.80;18.00;;;;;;;11.38;83.65;98070.05;104807;1321;22946;-87
2022/12/31 11:19:25;;;;;;;15.40;13.80;;;;;;;11.40;83.34;98065.33;104656;1306;22128;-84
2022/12/31 11:22:19;;;;;;;11.80;9.80;;;;;;;11.45;83.40;98067.45;105640;1309;22800;-85
2022/12/31 11:25:10;;;;;;;11.20;10.00;;;;;;;11.50;83.63;98072.69;105317;1323;22779;-86
2022/12/31 11:28:13;;;;;;;10.70;9.70;;;;;;;11.53;83.57;98074.41;105089;1324;22143;-89
2022/12/31 11:31:02;;;;;;;14.80;13.30;;;;;;;11.54;83.42;98072.62;105297;1324;22161;-89
2022/12/31 11:33:44;;;;;;;13.30;12.00;;;;;;;11.57;82.94;98078.49;105042;1319;22144;-90
2022/12/31 11:36:32;;;;;;;19.60;16.30;;;;;;;11.62;83.62;98067.90;105091;1324;22273;-89
2022/12/31 11:39:20;;;;;;;14.60;13.20;;;;;;;11.67;83.67;98063.08;105016;1320;22165;-88
2022/12/31 11:42:50;;;;;;;12.90;10.10;;;;;;;11.71;83.84;98060.92;104971;1321;22112;-90
2022/12/31 11:45:30;;;;;;;13.00;11.70;;;;;;;11.75;83.62;98057.91;105019;1327;22825;-90
2022/12/31 11:48:21;;;;;;;11.60;10.30;;;;;;;11.79;82.71;98059.61;105070;1324;22134;-93
2022/12/31 11:51:10;;;;;;;12.20;10.90;;;;;;;11.99;82.96;98053.34;104979;1327;22276;-88
2022/12/31 11:53:47;;;;;;;10.30;9.20;;;;;;;12.11;82.61;98054.76;105044;1318;22057;-89
2022/12/31 11:56:21;;;;;;;8.00;7.20;;;;;;;12.08;82.56;98049.67;105053;1327;22773;-91
2022/12/31 11:58:53;;;;;;;7.80;6.90;;;;;;;12.11;82.49;98051.77;104942;1327;22123;-87
2022/12/31 12:01:40;;;;;;;7.70;6.70;;;;;;;12.36;81.22;98055.64;104967;1326;22176;-89
2022/12/31 12:04:10;;;;;;;10.00;8.90;;;;;;;12.80;80.23;98054.46;105035;1325;22786;-88
2022/12/31 12:06:39;;;;;;;7.60;6.50;;;;;;;13.33;80.06;98035.92;104923;1327;23392;-88
2022/12/31 12:09:26;;;;;;;8.10;7.00;;;;;;;13.96;77.04;98036.17;104947;1327;22205;-88
2022/12/31 12:12:02;;;;;;;10.50;9.40;;;;;;;14.16;76.61;98044.08;104894;1327;22125;-89
2022/12/31 12:14:35;;;;;;;10.20;8.40;;;;;;;14.14;74.61;98045.50;104879;1327;22701;-88
2022/12/31 12:17:56;;;;;;;9.20;8.30;;;;;;;13.98;74.97;98041.70;104953;1320;22319;-89
2022/12/31 12:20:37;;;;;;;6.10;5.30;;;;;;;14.09;73.84;98042.06;105098;1324;22182;-89
2022/12/31 12:23:34;;;;;;;7.40;6.60;;;;;;;14.18;73.44;98040.17;104949;1327;22834;-91
2022/12/31 12:26:05;;;;;;;6.40;5.60;;;;;;;14.06;73.30;98041.61;104517;1325;22221;-88
2022/12/31 12:28:44;;;;;;;6.00;5.00;;;;;;;13.75;73.34;98045.83;104582;1333;22256;-89
2022/12/31 12:31:21;;;;;;;9.00;8.10;;;;;;;13.45;73.35;98043.02;104543;1333;22861;-87
2022/12/31 12:33:50;;;;;;;7.20;5.50;;;;;;;13.26;74.28;98043.33;104535;1333;22964;-89
2022/12/31 12:36:20;;;;;;;7.20;6.00;;;;;;;13.14;74.59;98042.90;104838;1326;22122;-89